Lent, Minnesota
Current Conditions -  °F | °C
As of 10:35 PM on Friday 24 Oct 2014 (Local Time) from KCBG Reporting Station
Clear Clear  
Wind Chill: 61°   Ceiling: Unl
Heat Index: 61°   Visibility: 10mi
Dew Point: 46°   Wind: 7mph
Humidity: 59%   Direction: 250°WSW
Pressure: 29.82"   Gusts: NA
Location:  45.406°N, 93.0079°W
Report Text: KCBG 250335Z AUTO 25006KT 10SM CLR 16/08 A2982 RMK AO2
Loading
Personal Weather Stations






























Interactive Weather Map
Tropical Storm Tracking
New forecast layout! Learn more

10-Day Weather Forecast

Advertisements
Track Severe Weather on mobile